Richmond, VA (23234)

9:28 AM EST on February 07, 2016 (GMT -0500)
Mason Woods West | | Change Station
CLOSE
Current Station
Personal Weather Station
Location: Richmond, VA
Elevation: 177 ft
Nearby Weather Stations

Elev 177 ft 37.42 °N, 77.48 °W | Updated 5 seconds ago

Partly Cloudy
Partly Cloudy
35.8 °F
Feels Like 36 °F
N
0.4
Wind Variable Wind from ENE
Gusts 2.5 mph

Today
High -- | Low -- °F
--% Chance of Precip.
Yesterday
High -- | Low -- °F
Precip. -- in
Pressure 30.17 in
Visibility 10.0 miles
Clouds Scattered Clouds 12000 ft
Overcast 20000 ft
Windchill 36 °F
Dew Point 29 °F
Humidity 77%
Rainfall 0.00 in
Snow Depth Not available.
7:08 AM 5:40 PM
Waning Crescent, 1% visible
METAR KRIC 071354Z 01005KT 10SM SCT120 OVC200 01/M02 A3015 RMK AO2 SLP216 T00061022
Pressure 30.17 in
Visibility 10.0 miles
Clouds Scattered Clouds 12000 ft
Overcast 20000 ft
Windchill 36 °F
Dew Point 29 °F
Humidity 77%
Rainfall 0.00 in
Snow Depth Not available.
7:08 AM 5:40 PM
Waning Crescent, 1% visible
METAR KRIC 071354Z 01005KT 10SM SCT120 OVC200 01/M02 A3015 RMK AO2 SLP216 T00061022

10-Day Weather Forecast

Almanac

Astronomy

Feb. 07, 2016 Rise Set
Actual Time
Civil Twilight
Nautical Twilight
Astronomical Twilight
Moon
Length of Visible Light
Length of Day
Tomorrow will be .
, % of the Moon is Illuminated

Today's Extremes

State Highs State Lows

Community

WunderPhotos

Upload Photos

1,891,204 photos uploaded!

WunderBlog® & News

Nearby

Air Quality

  Air Quality AQ Index Pollutant
Not available.

Snow Depth

Station Depth Elevation

Earthquake Activity

City Distance Mag. Time & Date
Minimum magnitude displayed is 2.5.

Coastal Water Temperatures

Place Temperature

Stations

Nearby Weather Stations

Station Location Temp. Windchill Dew Point Humidity Wind Precip. Elev Updated Type
                   

Watches & Warnings

There are currently no watches in effect.